sensor_id;sensor_type;location;lat;lon;timestamp;pressure;altitude;pressure_sealevel;temperature;humidity
65359;BME280;52491;45.900;6.346;2023-07-20T00:01:07;93907.00;;;28.24;29.97
65359;BME280;52491;45.900;6.346;2023-07-20T00:03:33;93906.69;;;28.25;29.99
65359;BME280;52491;45.900;6.346;2023-07-20T00:05:58;93911.28;;;28.25;29.89
65359;BME280;52491;45.900;6.346;2023-07-20T00:08:24;93900.03;;;28.23;30.07
65359;BME280;52491;45.900;6.346;2023-07-20T00:10:50;93904.66;;;28.17;30.03
65359;BME280;52491;45.900;6.346;2023-07-20T00:13:16;93898.53;;;28.11;30.08
65359;BME280;52491;45.900;6.346;2023-07-20T00:15:43;93903.69;;;28.08;30.21
65359;BME280;52491;45.900;6.346;2023-07-20T00:18:09;93902.91;;;28.07;30.08
65359;BME280;52491;45.900;6.346;2023-07-20T00:20:35;93909.34;;;28.06;30.28
65359;BME280;52491;45.900;6.346;2023-07-20T00:23:00;93904.78;;;28.07;30.11
65359;BME280;52491;45.900;6.346;2023-07-20T00:25:26;93902.91;;;28.07;30.18
65359;BME280;52491;45.900;6.346;2023-07-20T00:27:51;93904.47;;;28.08;30.15
65359;BME280;52491;45.900;6.346;2023-07-20T00:30:17;93891.38;;;28.07;30.04
65359;BME280;52491;45.900;6.346;2023-07-20T00:32:44;93892.75;;;28.04;30.02
65359;BME280;52491;45.900;6.346;2023-07-20T00:35:10;93897.63;;;27.97;30.09
65359;BME280;52491;45.900;6.346;2023-07-20T00:37:36;93900.38;;;27.92;30.36
65359;BME280;52491;45.900;6.346;2023-07-20T00:40:02;93899.56;;;27.92;30.25
65359;BME280;52491;45.900;6.346;2023-07-20T00:42:29;93896.09;;;27.91;30.46
65359;BME280;52491;45.900;6.346;2023-07-20T00:44:55;93896.38;;;27.89;30.28
65359;BME280;52491;45.900;6.346;2023-07-20T00:47:20;93897.19;;;27.90;30.22
65359;BME280;52491;45.900;6.346;2023-07-20T00:49:46;93900.44;;;27.87;30.22
65359;BME280;52491;45.900;6.346;2023-07-20T00:52:13;93898.31;;;27.84;30.16
65359;BME280;52491;45.900;6.346;2023-07-20T00:54:41;93896.19;;;27.81;30.35
65359;BME280;52491;45.900;6.346;2023-07-20T00:57:07;93900.22;;;27.78;30.43
65359;BME280;52491;45.900;6.346;2023-07-20T00:59:34;93887.91;;;27.77;30.40
65359;BME280;52491;45.900;6.346;2023-07-20T01:02:00;93885.22;;;27.77;30.07
65359;BME280;52491;45.900;6.346;2023-07-20T01:04:26;93885.53;;;27.76;30.27
65359;BME280;52491;45.900;6.346;2023-07-20T01:07:09;93881.22;;;27.75;30.25
65359;BME280;52491;45.900;6.346;2023-07-20T01:12:22;93889.63;;;27.68;30.34
65359;BME280;52491;45.900;6.346;2023-07-20T01:14:51;93884.25;;;27.68;30.51
65359;BME280;52491;45.900;6.346;2023-07-20T01:17:17;93884.25;;;27.68;30.33
65359;BME280;52491;45.900;6.346;2023-07-20T01:19:43;93883.72;;;27.66;30.32
65359;BME280;52491;45.900;6.346;2023-07-20T01:22:35;93883.22;;;27.64;30.31
65359;BME280;52491;45.900;6.346;2023-07-20T01:30:55;93890.03;;;27.51;30.61
65359;BME280;52491;45.900;6.346;2023-07-20T01:33:21;93885.75;;;27.50;30.48
65359;BME280;52491;45.900;6.346;2023-07-20T01:35:54;93883.38;;;27.49;30.67
65359;BME280;52491;45.900;6.346;2023-07-20T01:38:21;93873.97;;;27.51;30.43
65359;BME280;52491;45.900;6.346;2023-07-20T01:40:49;93872.09;;;27.52;30.56
65359;BME280;52491;45.900;6.346;2023-07-20T01:43:16;93868.88;;;27.50;30.57
65359;BME280;52491;45.900;6.346;2023-07-20T01:45:41;93865.72;;;27.48;30.45
65359;BME280;52491;45.900;6.346;2023-07-20T01:48:07;93876.69;;;27.46;30.33
65359;BME280;52491;45.900;6.346;2023-07-20T01:50:32;93875.13;;;27.45;30.44
65359;BME280;52491;45.900;6.346;2023-07-20T01:53:00;93877.22;;;27.48;30.50
65359;BME280;52491;45.900;6.346;2023-07-20T01:55:26;93877.72;;;27.50;30.32
65359;BME280;52491;45.900;6.346;2023-07-20T01:57:52;93876.91;;;27.50;30.41
65359;BME280;52491;45.900;6.346;2023-07-20T02:00:18;93867.31;;;27.49;30.32
65359;BME280;52491;45.900;6.346;2023-07-20T02:02:46;93873.75;;;27.48;30.29
65359;BME280;52491;45.900;6.346;2023-07-20T02:05:12;93863.84;;;27.48;30.35
65359;BME280;52491;45.900;6.346;2023-07-20T02:07:37;93863.03;;;27.48;30.36
65359;BME280;52491;45.900;6.346;2023-07-20T02:10:03;93855.50;;;27.50;30.50
65359;BME280;52491;45.900;6.346;2023-07-20T02:12:29;93858.97;;;27.50;30.29
65359;BME280;52491;45.900;6.346;2023-07-20T02:14:54;93862.47;;;27.51;30.29
65359;BME280;52491;45.900;6.346;2023-07-20T02:17:20;93853.13;;;27.48;30.03
65359;BME280;52491;45.900;6.346;2023-07-20T02:19:45;93850.50;;;27.43;30.25
65359;BME280;52491;45.900;6.346;2023-07-20T02:22:12;93862.56;;;27.40;30.41
65359;BME280;52491;45.900;6.346;2023-07-20T02:24:37;93858.78;;;27.41;30.29
65359;BME280;52491;45.900;6.346;2023-07-20T02:27:03;93851.84;;;27.40;30.27
65359;BME280;52491;45.900;6.346;2023-07-20T02:29:29;93860.16;;;27.39;30.17
65359;BME280;52491;45.900;6.346;2023-07-20T02:31:54;93862.34;;;27.37;30.23
65359;BME280;52491;45.900;6.346;2023-07-20T02:34:20;93863.69;;;27.34;30.29
65359;BME280;52491;45.900;6.346;2023-07-20T02:36:46;93869.59;;;27.31;30.43
65359;BME280;52491;45.900;6.346;2023-07-20T02:39:11;93862.94;;;27.29;30.19
65359;BME280;52491;45.900;6.346;2023-07-20T02:41:37;93865.34;;;27.25;30.20
65359;BME280;52491;45.900;6.346;2023-07-20T02:44:02;93867.50;;;27.28;30.45
65359;BME280;52491;45.900;6.346;2023-07-20T02:46:28;93870.22;;;27.23;30.22
65359;BME280;52491;45.900;6.346;2023-07-20T02:48:55;93872.63;;;27.19;30.58
65359;BME280;52491;45.900;6.346;2023-07-20T02:51:21;93874.25;;;27.20;30.46
65359;BME280;52491;45.900;6.346;2023-07-20T02:53:46;93878.28;;;27.18;30.38
65359;BME280;52491;45.900;6.346;2023-07-20T02:56:12;93872.41;;;27.16;30.39
65359;BME280;52491;45.900;6.346;2023-07-20T02:58:40;93874.50;;;27.14;30.56
65359;BME280;52491;45.900;6.346;2023-07-20T03:01:09;93875.06;;;27.11;30.69
65359;BME280;52491;45.900;6.346;2023-07-20T03:03:36;93874.50;;;27.14;30.51
65359;BME280;52491;45.900;6.346;2023-07-20T03:06:04;93865.44;;;27.15;30.59
65359;BME280;52491;45.900;6.346;2023-07-20T03:08:30;93868.66;;;27.17;30.28
65359;BME280;52491;45.900;6.346;2023-07-20T03:10:56;93870.25;;;27.18;30.41
65359;BME280;52491;45.900;6.346;2023-07-20T03:13:22;93872.41;;;27.16;30.29
65359;BME280;52491;45.900;6.346;2023-07-20T03:15:49;93877.19;;;27.14;30.35
65359;BME280;52491;45.900;6.346;2023-07-20T03:18:15;93871.34;;;27.12;30.36
65359;BME280;52491;45.900;6.346;2023-07-20T03:20:41;93876.69;;;27.12;30.38
65359;BME280;52491;45.900;6.346;2023-07-20T03:23:07;93880.44;;;27.11;30.35
65359;BME280;52491;45.900;6.346;2023-07-20T03:25:32;93881.00;;;27.08;30.18
65359;BME280;52491;45.900;6.346;2023-07-20T03:27:58;93878.31;;;27.08;30.29
65359;BME280;52491;45.900;6.346;2023-07-20T03:30:24;93874.88;;;27.02;30.36
65359;BME280;52491;45.900;6.346;2023-07-20T03:32:51;93879.72;;;27.00;30.65
65359;BME280;52491;45.900;6.346;2023-07-20T03:35:16;93875.19;;;27.00;30.45
65359;BME280;52491;45.900;6.346;2023-07-20T03:37:42;93874.06;;;27.07;30.72
65359;BME280;52491;45.900;6.346;2023-07-20T03:40:09;93870.28;;;27.08;30.80
65359;BME280;52491;45.900;6.346;2023-07-20T03:42:35;93879.06;;;27.13;30.50
65359;BME280;52491;45.900;6.346;2023-07-20T03:45:01;93867.03;;;27.16;30.60
65359;BME280;52491;45.900;6.346;2023-07-20T03:47:28;93870.78;;;27.15;30.81
65359;BME280;52491;45.900;6.346;2023-07-20T03:49:54;93873.72;;;27.18;30.76
65359;BME280;52491;45.900;6.346;2023-07-20T03:52:19;93865.91;;;27.22;30.85
65359;BME280;52491;45.900;6.346;2023-07-20T03:54:45;93857.88;;;27.22;30.81
65359;BME280;52491;45.900;6.346;2023-07-20T03:57:11;93859.50;;;27.23;30.91
65359;BME280;52491;45.900;6.346;2023-07-20T03:59:37;93862.69;;;27.25;31.11
65359;BME280;52491;45.900;6.346;2023-07-20T04:02:03;93861.63;;;27.26;31.26
65359;BME280;52491;45.900;6.346;2023-07-20T04:04:30;93865.88;;;27.27;31.18
65359;BME280;52491;45.900;6.346;2023-07-20T04:06:55;93866.66;;;27.28;31.59
65359;BME280;52491;45.900;6.346;2023-07-20T04:09:21;93864.53;;;27.30;31.50
65359;BME280;52491;45.900;6.346;2023-07-20T04:11:47;93867.44;;;27.33;31.33
65359;BME280;52491;45.900;6.346;2023-07-20T04:14:12;93859.91;;;27.35;31.42
65359;BME280;52491;45.900;6.346;2023-07-20T04:16:38;93866.31;;;27.39;31.45
65359;BME280;52491;45.900;6.346;2023-07-20T04:19:03;93856.41;;;27.40;31.60
65359;BME280;52491;45.900;6.346;2023-07-20T04:21:29;93861.47;;;27.41;31.49
65359;BME280;52491;45.900;6.346;2023-07-20T04:23:54;93868.13;;;27.44;31.46
65359;BME280;52491;45.900;6.346;2023-07-20T04:26:20;93861.41;;;27.47;31.55
65359;BME280;52491;45.900;6.346;2023-07-20T04:28:45;93861.94;;;27.49;31.43
65359;BME280;52491;45.900;6.346;2023-07-20T04:31:13;93856.59;;;27.49;31.76
65359;BME280;52491;45.900;6.346;2023-07-20T04:33:39;93862.47;;;27.51;31.78
65359;BME280;52491;45.900;6.346;2023-07-20T04:36:05;93853.06;;;27.53;31.65
65359;BME280;52491;45.900;6.346;2023-07-20T04:38:31;93857.03;;;27.56;31.58
65359;BME280;52491;45.900;6.346;2023-07-20T04:40:56;93851.69;;;27.56;31.58
65359;BME280;52491;45.900;6.346;2023-07-20T04:43:22;93855.19;;;27.56;31.67
65359;BME280;52491;45.900;6.346;2023-07-20T04:45:47;93853.31;;;27.57;31.88
65359;BME280;52491;45.900;6.346;2023-07-20T04:48:15;93854.88;;;27.58;31.90
65359;BME280;52491;45.900;6.346;2023-07-20T04:50:42;93854.38;;;27.56;31.98
65359;BME280;52491;45.900;6.346;2023-07-20T04:53:14;93851.41;;;27.57;32.10
65359;BME280;52491;45.900;6.346;2023-07-20T04:55:40;93848.47;;;27.59;32.00
65359;BME280;52491;45.900;6.346;2023-07-20T04:58:06;93853.53;;;27.60;32.00
65359;BME280;52491;45.900;6.346;2023-07-20T05:00:33;93851.63;;;27.61;32.30
65359;BME280;52491;45.900;6.346;2023-07-20T05:02:59;93846.00;;;27.62;32.14
65359;BME280;52491;45.900;6.346;2023-07-20T05:05:24;93852.69;;;27.65;32.01
65359;BME280;52491;45.900;6.346;2023-07-20T05:07:50;93854.28;;;27.66;32.07
65359;BME280;52491;45.900;6.346;2023-07-20T05:10:16;93853.19;;;27.67;32.18
65359;BME280;52491;45.900;6.346;2023-07-20T05:12:41;93849.72;;;27.66;32.31
65359;BME280;52491;45.900;6.346;2023-07-20T05:15:07;93851.06;;;27.64;31.97
65359;BME280;52491;45.900;6.346;2023-07-20T05:17:33;93853.75;;;27.64;32.45
65359;BME280;52491;45.900;6.346;2023-07-20T05:19:59;93847.91;;;27.62;32.51
65359;BME280;52491;45.900;6.346;2023-07-20T05:22:24;93848.41;;;27.64;32.34
65359;BME280;52491;45.900;6.346;2023-07-20T05:24:50;93847.81;;;27.67;32.65
65359;BME280;52491;45.900;6.346;2023-07-20T05:27:16;93838.19;;;27.66;32.23
65359;BME280;52491;45.900;6.346;2023-07-20T05:29:45;93845.97;;;27.67;32.41
65359;BME280;52491;45.900;6.346;2023-07-20T05:32:11;93839.78;;;27.67;32.36
65359;BME280;52491;45.900;6.346;2023-07-20T05:34:36;93830.97;;;27.66;32.50
65359;BME280;52491;45.900;6.346;2023-07-20T05:37:02;93837.09;;;27.67;32.20
65359;BME280;52491;45.900;6.346;2023-07-20T05:39:27;93842.47;;;27.67;32.76
65359;BME280;52491;45.900;6.346;2023-07-20T05:41:53;93836.31;;;27.66;32.67
65359;BME280;52491;45.900;6.346;2023-07-20T05:44:18;93838.19;;;27.66;32.74
65359;BME280;52491;45.900;6.346;2023-07-20T05:46:44;93834.44;;;27.67;32.56
65359;BME280;52491;45.900;6.346;2023-07-20T05:49:09;93833.94;;;27.65;32.64
65359;BME280;52491;45.900;6.346;2023-07-20T05:51:35;93833.38;;;27.68;32.69
65359;BME280;52491;45.900;6.346;2023-07-20T05:54:01;93828.53;;;27.70;32.70
65359;BME280;52491;45.900;6.346;2023-07-20T05:56:27;93834.38;;;27.72;32.89
65359;BME280;52491;45.900;6.346;2023-07-20T05:58:52;93826.34;;;27.72;32.78
65359;BME280;52491;45.900;6.346;2023-07-20T06:01:18;93833.31;;;27.73;32.61
65359;BME280;52491;45.900;6.346;2023-07-20T06:03:44;93826.34;;;27.72;32.97
65359;BME280;52491;45.900;6.346;2023-07-20T06:06:10;93824.47;;;27.73;32.93
65359;BME280;52491;45.900;6.346;2023-07-20T06:08:37;93823.66;;;27.72;32.96
65359;BME280;52491;45.900;6.346;2023-07-20T06:11:03;93818.31;;;27.72;33.03
65359;BME280;52491;45.900;6.346;2023-07-20T06:13:29;93814.56;;;27.73;32.98
65359;BME280;52491;45.900;6.346;2023-07-20T06:15:54;93813.47;;;27.74;32.86
65359;BME280;52491;45.900;6.346;2023-07-20T06:18:22;93813.47;;;27.74;33.19
65359;BME280;52491;45.900;6.346;2023-07-20T06:20:50;93815.06;;;27.75;33.01
65359;BME280;52491;45.900;6.346;2023-07-20T06:23:16;93808.63;;;27.76;32.91
65359;BME280;52491;45.900;6.346;2023-07-20T06:25:41;93805.97;;;27.76;32.86
65359;BME280;52491;45.900;6.346;2023-07-20T06:28:07;93808.63;;;27.76;33.08
65359;BME280;52491;45.900;6.346;2023-07-20T06:30:33;93800.59;;;27.76;33.09
65359;BME280;52491;45.900;6.346;2023-07-20T06:33:00;93798.72;;;27.77;33.25
65359;BME280;52491;45.900;6.346;2023-07-20T06:35:25;93800.28;;;27.78;32.90
65359;BME280;52491;45.900;6.346;2023-07-20T06:37:51;93797.63;;;27.78;33.18
65359;BME280;52491;45.900;6.346;2023-07-20T06:40:17;93793.88;;;27.79;33.32
65359;BME280;52491;45.900;6.346;2023-07-20T06:42:43;93788.50;;;27.79;33.12
65359;BME280;52491;45.900;6.346;2023-07-20T06:45:09;93785.00;;;27.78;33.25
65359;BME280;52491;45.900;6.346;2023-07-20T06:47:35;93781.31;;;27.79;33.34
65359;BME280;52491;45.900;6.346;2023-07-20T06:50:00;93789.84;;;27.81;33.24
65359;BME280;52491;45.900;6.346;2023-07-20T06:52:26;93783.16;;;27.79;33.38
65359;BME280;52491;45.900;6.346;2023-07-20T06:54:51;93790.13;;;27.80;33.40
65359;BME280;52491;45.900;6.346;2023-07-20T06:57:17;93786.09;;;27.82;33.36
65359;BME280;52491;45.900;6.346;2023-07-20T06:59:43;93781.81;;;27.81;33.42
65359;BME280;52491;45.900;6.346;2023-07-20T07:02:08;93777.25;;;27.82;33.58
65359;BME280;52491;45.900;6.346;2023-07-20T07:04:34;93781.53;;;27.83;33.85
65359;BME280;52491;45.900;6.346;2023-07-20T07:06:59;93778.84;;;27.83;33.47
65359;BME280;52491;45.900;6.346;2023-07-20T07:09:25;93780.44;;;27.84;33.45
65359;BME280;52491;45.900;6.346;2023-07-20T07:11:51;93775.88;;;27.84;33.54
65359;BME280;52491;45.900;6.346;2023-07-20T07:14:19;93771.31;;;27.85;33.55
65359;BME280;52491;45.900;6.346;2023-07-20T07:16:45;93769.44;;;27.85;33.63
65359;BME280;52491;45.900;6.346;2023-07-20T07:19:11;93767.28;;;27.87;33.65
65359;BME280;52491;45.900;6.346;2023-07-20T07:21:36;93759.25;;;27.87;33.53
65359;BME280;52491;45.900;6.346;2023-07-20T07:24:02;93763.81;;;27.87;33.54
65359;BME280;52491;45.900;6.346;2023-07-20T07:26:29;93759.25;;;27.87;33.62
65359;BME280;52491;45.900;6.346;2023-07-20T07:28:54;93766.19;;;27.88;33.76
65359;BME280;52491;45.900;6.346;2023-07-20T07:31:20;93764.59;;;27.87;33.69
65359;BME280;52491;45.900;6.346;2023-07-20T07:33:46;93763.81;;;27.87;33.78
65359;BME280;52491;45.900;6.346;2023-07-20T07:36:11;93760.03;;;27.88;33.57
65359;BME280;52491;45.900;6.346;2023-07-20T07:38:37;93760.03;;;27.88;33.64
65359;BME280;52491;45.900;6.346;2023-07-20T07:41:03;93756.56;;;27.87;33.78
65359;BME280;52491;45.900;6.346;2023-07-20T07:43:29;93759.72;;;27.89;34.10
65359;BME280;52491;45.900;6.346;2023-07-20T07:45:54;93742.84;;;27.89;33.81
65359;BME280;52491;45.900;6.346;2023-07-20T07:48:21;93750.91;;;27.89;34.08
65359;BME280;52491;45.900;6.346;2023-07-20T07:50:47;93740.97;;;27.89;34.08
65359;BME280;52491;45.900;6.346;2023-07-20T07:53:13;93746.06;;;27.91;33.88
65359;BME280;52491;45.900;6.346;2023-07-20T07:55:38;93738.00;;;27.91;33.79
65359;BME280;52491;45.900;6.346;2023-07-20T07:58:04;93734.53;;;27.91;33.96
65359;BME280;52491;45.900;6.346;2023-07-20T08:00:30;93741.50;;;27.92;34.07
65359;BME280;52491;45.900;6.346;2023-07-20T08:02:55;93736.13;;;27.92;34.05
65359;BME280;52491;45.900;6.346;2023-07-20T08:05:21;93737.75;;;27.93;34.05
65359;BME280;52491;45.900;6.346;2023-07-20T08:07:46;93729.69;;;27.93;34.22
65359;BME280;52491;45.900;6.346;2023-07-20T08:10:12;93733.97;;;27.94;34.27
65359;BME280;52491;45.900;6.346;2023-07-20T08:12:37;93726.44;;;27.96;34.14
65359;BME280;52491;45.900;6.346;2023-07-20T08:15:03;93717.81;;;27.99;34.18
65359;BME280;52491;45.900;6.346;2023-07-20T08:17:29;93719.41;;;28.00;34.21
65359;BME280;52491;45.900;6.346;2023-07-20T08:19:55;93712.47;;;27.99;34.16
65359;BME280;52491;45.900;6.346;2023-07-20T08:22:20;93717.25;;;28.02;34.00
65359;BME280;52491;45.900;6.346;2023-07-20T08:24:46;93713.78;;;28.01;34.20
65359;BME280;52491;45.900;6.346;2023-07-20T08:27:11;93711.88;;;28.02;34.33
65359;BME280;52491;45.900;6.346;2023-07-20T08:29:37;93701.16;;;28.02;34.09
65359;BME280;52491;45.900;6.346;2023-07-20T08:32:04;93705.44;;;28.03;34.16
65359;BME280;52491;45.900;6.346;2023-07-20T08:34:30;93697.38;;;28.03;34.29
65359;BME280;52491;45.900;6.346;2023-07-20T08:36:56;93692.81;;;28.03;34.31
65359;BME280;52491;45.900;6.346;2023-07-20T08:39:22;93689.06;;;28.04;34.38
65359;BME280;52491;45.900;6.346;2023-07-20T08:41:49;93685.59;;;28.04;34.31
65359;BME280;52491;45.900;6.346;2023-07-20T08:44:14;93682.63;;;28.05;34.35
65359;BME280;52491;45.900;6.346;2023-07-20T08:46:41;93681.81;;;28.05;34.33
65359;BME280;52491;45.900;6.346;2023-07-20T08:49:07;93684.22;;;28.06;34.65
65359;BME280;52491;45.900;6.346;2023-07-20T08:51:33;93673.78;;;28.05;34.25
65359;BME280;52491;45.900;6.346;2023-07-20T08:54:01;93681.53;;;28.06;34.34
65359;BME280;52491;45.900;6.346;2023-07-20T08:56:26;93671.63;;;28.07;34.37
65359;BME280;52491;45.900;6.346;2023-07-20T08:58:53;93678.56;;;28.08;34.32
65359;BME280;52491;45.900;6.346;2023-07-20T09:01:19;93670.31;;;28.04;34.51
65359;BME280;52491;45.900;6.346;2023-07-20T09:03:46;93666.84;;;28.04;34.50
65359;BME280;52491;45.900;6.346;2023-07-20T09:06:13;93664.94;;;28.04;34.72
65359;BME280;52491;45.900;6.346;2023-07-20T09:08:39;93669.22;;;28.05;34.27
65359;BME280;52491;45.900;6.346;2023-07-20T09:11:05;93668.41;;;28.05;34.48
65359;BME280;52491;45.900;6.346;2023-07-20T09:13:34;93663.56;;;28.07;34.51
65359;BME280;52491;45.900;6.346;2023-07-20T09:16:00;93653.94;;;28.06;34.60
65359;BME280;52491;45.900;6.346;2023-07-20T09:18:27;93650.66;;;28.09;34.49
65359;BME280;52491;45.900;6.346;2023-07-20T09:21:03;93650.66;;;28.09;34.66
65359;BME280;52491;45.900;6.346;2023-07-20T09:23:38;93643.44;;;28.09;34.59
65359;BME280;52491;45.900;6.346;2023-07-20T09:26:12;93644.22;;;28.10;34.45
65359;BME280;52491;45.900;6.346;2023-07-20T09:28:52;93638.28;;;28.13;34.42
65359;BME280;52491;45.900;6.346;2023-07-20T09:31:19;93630.53;;;28.11;34.71
65359;BME280;52491;45.900;6.346;2023-07-20T09:33:46;93642.06;;;28.12;34.47
65359;BME280;52491;45.900;6.346;2023-07-20T09:36:12;93631.34;;;28.12;34.46
65359;BME280;52491;45.900;6.346;2023-07-20T09:38:38;93624.09;;;28.13;34.65
65359;BME280;52491;45.900;6.346;2023-07-20T09:41:05;93619.81;;;28.11;34.76
65359;BME280;52491;45.900;6.346;2023-07-20T09:43:32;93614.16;;;28.13;34.58
65359;BME280;52491;45.900;6.346;2023-07-20T09:45:59;93608.81;;;28.13;34.09
65359;BME280;52491;45.900;6.346;2023-07-20T09:48:25;93609.91;;;28.12;34.53
65359;BME280;52491;45.900;6.346;2023-07-20T09:50:55;93611.47;;;28.13;34.60
65359;BME280;52491;45.900;6.346;2023-07-20T09:53:21;93612.28;;;28.14;34.60
65359;BME280;52491;45.900;6.346;2023-07-20T09:55:47;93606.63;;;28.15;34.63
65359;BME280;52491;45.900;6.346;2023-07-20T09:58:14;93608.22;;;28.16;34.83
65359;BME280;52491;45.900;6.346;2023-07-20T10:00:41;93594.03;;;28.16;34.73
65359;BME280;52491;45.900;6.346;2023-07-20T10:03:16;93602.56;;;28.18;34.60
65359;BME280;52491;45.900;6.346;2023-07-20T10:05:48;93598.78;;;28.19;34.58
65359;BME280;52491;45.900;6.346;2023-07-20T10:08:19;93598.78;;;28.19;34.61
65359;BME280;52491;45.900;6.346;2023-07-20T10:10:46;93586.50;;;28.18;34.71
65359;BME280;52491;45.900;6.346;2023-07-20T10:13:21;93579.72;;;28.20;34.54
65359;BME280;52491;45.900;6.346;2023-07-20T10:15:54;93584.53;;;28.23;34.51
65359;BME280;52491;45.900;6.346;2023-07-20T10:18:29;93584.53;;;28.23;34.48
65359;BME280;52491;45.900;6.346;2023-07-20T10:20:55;93569.22;;;28.24;34.61
65359;BME280;52491;45.900;6.346;2023-07-20T10:23:22;93574.09;;;28.22;34.61
65359;BME280;52491;45.900;6.346;2023-07-20T10:25:49;93579.94;;;28.24;34.82
65359;BME280;52491;45.900;6.346;2023-07-20T10:28:16;93578.34;;;28.23;34.69
65359;BME280;52491;45.900;6.346;2023-07-20T10:30:42;93580.75;;;28.24;34.76
65359;BME280;52491;45.900;6.346;2023-07-20T10:33:08;93579.16;;;28.23;34.70
65359;BME280;52491;45.900;6.346;2023-07-20T10:35:54;93571.59;;;28.25;34.69
65359;BME280;52491;45.900;6.346;2023-07-20T10:38:41;93569.72;;;28.26;34.50
65359;BME280;52491;45.900;6.346;2023-07-20T10:41:39;93572.09;;;28.27;34.63
65359;BME280;52491;45.900;6.346;2023-07-20T10:44:09;93560.88;;;28.25;34.74
65359;BME280;52491;45.900;6.346;2023-07-20T10:46:45;93563.28;;;28.27;34.68
65359;BME280;52491;45.900;6.346;2023-07-20T10:49:11;93566.75;;;28.27;34.55
65359;BME280;52491;45.900;6.346;2023-07-20T10:51:58;93559.22;;;28.29;34.79
65359;BME280;52491;45.900;6.346;2023-07-20T10:56:51;93554.13;;;28.28;34.63
65359;BME280;52491;45.900;6.346;2023-07-20T10:59:19;93551.66;;;28.31;34.46
65359;BME280;52491;45.900;6.346;2023-07-20T11:01:47;93544.16;;;28.47;34.36
65359;BME280;52491;45.900;6.346;2023-07-20T11:04:17;93545.03;;;28.43;34.37
65359;BME280;52491;45.900;6.346;2023-07-20T11:06:46;93532.72;;;28.42;34.80
65359;BME280;52491;45.900;6.346;2023-07-20T11:09:22;93531.25;;;28.49;34.73
65359;BME280;52491;45.900;6.346;2023-07-20T11:12:12;93534.69;;;28.36;34.99
65359;BME280;52491;45.900;6.346;2023-07-20T11:14:54;93528.88;;;28.48;34.97
65359;BME280;52491;45.900;6.346;2023-07-20T11:17:29;93528.78;;;28.53;34.99
65359;BME280;52491;45.900;6.346;2023-07-20T11:19:56;93527.97;;;28.52;34.73
65359;BME280;52491;45.900;6.346;2023-07-20T11:22:22;93533.59;;;28.37;35.22
65359;BME280;52491;45.900;6.346;2023-07-20T11:24:48;93526.78;;;28.45;35.00
65359;BME280;52491;45.900;6.346;2023-07-20T11:27:17;93532.84;;;28.50;35.23
65359;BME280;52491;45.900;6.346;2023-07-20T11:29:47;93518.84;;;28.53;35.24
65359;BME280;52491;45.900;6.346;2023-07-20T11:32:20;93512.41;;;28.54;34.76
65359;BME280;52491;45.900;6.346;2023-07-20T11:34:47;93522.81;;;28.56;34.92
65359;BME280;52491;45.900;6.346;2023-07-20T11:37:13;93510.19;;;28.56;35.43
65359;BME280;52491;45.900;6.346;2023-07-20T11:39:38;93507.22;;;28.58;35.08
65359;BME280;52491;45.900;6.346;2023-07-20T11:42:05;93514.16;;;28.59;35.03
65359;BME280;52491;45.900;6.346;2023-07-20T11:44:32;93508.53;;;28.61;35.34
65359;BME280;52491;45.900;6.346;2023-07-20T11:47:07;93507.13;;;28.63;35.19
65359;BME280;52491;45.900;6.346;2023-07-20T11:49:43;93498.28;;;28.63;35.33
65359;BME280;52491;45.900;6.346;2023-07-20T11:52:16;93504.13;;;28.65;35.40
65359;BME280;52491;45.900;6.346;2023-07-20T11:54:43;93507.13;;;28.63;34.80
65359;BME280;52491;45.900;6.346;2023-07-20T11:57:21;93498.78;;;28.65;35.02
65359;BME280;52491;45.900;6.346;2023-07-20T11:59:57;93488.03;;;28.65;35.38
65359;BME280;52491;45.900;6.346;2023-07-20T12:02:25;93487.25;;;28.64;35.39
65359;BME280;52491;45.900;6.346;2023-07-20T12:04:52;93471.16;;;28.64;35.12
65359;BME280;52491;45.900;6.346;2023-07-20T12:07:19;93480.81;;;28.65;35.49
65359;BME280;52491;45.900;6.346;2023-07-20T12:10:06;93477.81;;;28.67;35.19
65359;BME280;52491;45.900;6.346;2023-07-20T12:12:43;93478.13;;;28.65;35.69
65359;BME280;52491;45.900;6.346;2023-07-20T12:15:23;93472.63;;;28.70;35.37
65359;BME280;52491;45.900;6.346;2023-07-20T12:17:56;93477.53;;;28.68;35.31
65359;BME280;52491;45.900;6.346;2023-07-20T12:20:32;93468.38;;;28.69;35.32
65359;BME280;52491;45.900;6.346;2023-07-20T12:23:09;93464.13;;;28.68;35.52
65359;BME280;52491;45.900;6.346;2023-07-20T12:25:39;93462.22;;;28.69;35.60
65359;BME280;52491;45.900;6.346;2023-07-20T12:28:09;93465.69;;;28.69;35.54
65359;BME280;52491;45.900;6.346;2023-07-20T12:30:36;93461.91;;;28.70;35.22
65359;BME280;52491;45.900;6.346;2023-07-20T12:33:02;93471.56;;;28.71;35.43
65359;BME280;52491;45.900;6.346;2023-07-20T12:35:29;93460.31;;;28.69;35.48
65359;BME280;52491;45.900;6.346;2023-07-20T12:37:55;93461.13;;;28.70;35.50
65359;BME280;52491;45.900;6.346;2023-07-20T12:40:20;93469.97;;;28.70;35.27
65359;BME280;52491;45.900;6.346;2023-07-20T12:42:46;93463.81;;;28.70;35.31
65359;BME280;52491;45.900;6.346;2023-07-20T12:45:12;93466.19;;;28.71;35.67
65359;BME280;52491;45.900;6.346;2023-07-20T12:47:39;93459.72;;;28.72;35.18
65359;BME280;52491;45.900;6.346;2023-07-20T12:50:05;93459.72;;;28.72;35.47
65359;BME280;52491;45.900;6.346;2023-07-20T12:52:32;93457.84;;;28.73;35.48
65359;BME280;52491;45.900;6.346;2023-07-20T12:54:57;93460.84;;;28.71;35.35
65359;BME280;52491;45.900;6.346;2023-07-20T12:57:24;93462.22;;;28.69;35.31
65359;BME280;52491;45.900;6.346;2023-07-20T12:59:49;93458.44;;;28.70;35.25
65359;BME280;52491;45.900;6.346;2023-07-20T13:02:15;93459.22;;;28.70;35.53
65359;BME280;52491;45.900;6.346;2023-07-20T13:04:40;93457.66;;;28.69;35.38
65359;BME280;52491;45.900;6.346;2023-07-20T13:07:10;93451.50;;;28.69;35.48
65359;BME280;52491;45.900;6.346;2023-07-20T13:09:37;93461.44;;;28.68;35.49
65359;BME280;52491;45.900;6.346;2023-07-20T13:12:03;93467.59;;;28.69;35.43